Nyk Meteor — 3ENA9 — position and weather

sailwx.info

Track history (hours):
 
Tides and Currents Weather Stations Pressure Air Temp Water Temp Dewpoint Dewpoint Depression Visibility Wind Speed Wind Dir Waves Ship Positions

Nyk Meteor

Last reported at 2018-Feb-19 00:22 UTC. Time now 2018-Feb-22 05:29 UTC.
Position N 09°55' W 078°37'.

Length 294 m; draft 9.7 m.

Type: Cargo ship. MMSI: 354212000.

Date/timePositionNaut miles runAvg speedWind from/ knotsBaromVisibWave heightAir tempDewpointWater temp
2018-Feb-19 00:22N 09°55' W 078°37'7315.9
2018-Feb-18 19:48N 09°33' W 079°48'516.5
2018-Feb-18 19:30N 09°29' W 079°51'612.9
2018-Feb-18 19:00N 09°24' W 079°55'510.5
2018-Feb-18 18:30N 09°19' W 079°55'2 5.0
2018-Feb-18 18:00N 09°17' W 079°55'0 0.4
2018-Feb-18 17:30N 09°16' W 079°55'0 0.4
2018-Feb-18 17:00N 09°16' W 079°55'1 1.1
2018-Feb-18 16:30N 09°16' W 079°55'1 1.7
2018-Feb-18 16:00N 09°15' W 079°55'3 5.4
2018-Feb-18 15:29N 09°12' W 079°55'  
2018-Feb-11 01:07N 31°57' W 119°03'420.9
2018-Feb-11 00:54N 32°01' W 119°06'920.9
2018-Feb-11 00:29N 32°08' W 119°12'1020.5
2018-Feb-11 00:00N 32°16' W 119°19'1020.2
2018-Feb-10 23:30N 32°24' W 119°26'2820.5
2018-Feb-10 22:10N 32°47' W 119°45'820.6
2018-Feb-10 21:47N 32°53' W 119°50'620.6
2018-Feb-10 21:29N 32°58' W 119°54'1020.4
2018-Feb-10 21:00N 33°06' W 120°01'1420.4
2018-Feb-10 20:20N 33°17' W 120°10'720.7
2018-Feb-10 20:00N 33°23' W 120°15'1020.4
2018-Feb-10 19:30N 33°31' W 120°22'1020.3
2018-Feb-10 19:01N 33°40' W 120°29'1120.5
2018-Feb-10 18:28N 33°49' W 120°37'1020.8
2018-Feb-10 18:00N 33°57' W 120°44'1020.5
2018-Feb-10 17:31N 34°05' W 120°51'1120.6
2018-Feb-10 17:00N 34°13' W 120°58'1120.7
2018-Feb-10 16:28N 34°22' W 121°05'1020.5
2018-Feb-10 16:00N 34°30' W 121°12'1020.4
2018-Feb-10 15:30N 34°38' W 121°20'1020.1
2018-Feb-10 15:01N 34°47' W 121°26'1020.5
2018-Feb-10 14:31N 34°56' W 121°31'1020.7
2018-Feb-10 14:00N 35°06' W 121°36'1020.6
2018-Feb-10 13:31N 35°15' W 121°41'1020.6
2018-Feb-10 13:00N 35°25' W 121°46'1020.4
2018-Feb-10 12:31N 35°34' W 121°51'1020.5
2018-Feb-10 12:00N 35°43' W 121°57'2520.6
2018-Feb-10 10:48N 36°05' W 122°10'720.9
2018-Feb-10 10:28N 36°12' W 122°14'1020.9
2018-Feb-10 10:00N 36°20' W 122°20'1020.6
2018-Feb-10 09:30N 36°30' W 122°24'1020.6
2018-Feb-10 09:00N 36°40' W 122°29'1020.4
2018-Feb-10 08:31N 36°49' W 122°33'1020.6
2018-Feb-10 08:01N 36°59' W 122°38'1020.4
2018-Feb-10 07:31N 37°08' W 122°43'1019.9
2018-Feb-10 07:01N 37°18' W 122°44'1020.7
2018-Feb-10 06:31N 37°28' W 122°43'917.0
2018-Feb-10 06:00N 37°37' W 122°44'510.1
2018-Feb-10 05:30N 37°42' W 122°42'4 9.1
2018-Feb-10 05:01N 37°46' W 122°40'612.3
2018-Feb-10 04:30N 37°48' W 122°33'612.3
2018-Feb-10 04:00N 37°51' W 122°26'510.3
2018-Feb-10 03:30N 37°48' W 122°20'1 1.2
2018-Feb-10 03:00N 37°48' W 122°19'0 0.1
2018-Feb-10 02:29N 37°48' W 122°19'0 0.0
2018-Feb-10 02:00N 37°48' W 122°19'0 0.0
2018-Feb-10 01:30N 37°48' W 122°19'0 0.0
2018-Feb-10 01:00N 37°48' W 122°19'0 0.0
2018-Feb-10 00:30N 37°48' W 122°19'0 0.0
2018-Feb-10 00:00N 37°48' W 122°19'0 0.0
2018-Feb-09 23:30N 37°48' W 122°19'0 0.0
2018-Feb-09 23:00N 37°48' W 122°19'0 0.0
2018-Feb-09 22:46N 37°48' W 122°19'0 0.0
2018-Feb-09 22:30N 37°48' W 122°19'0 0.0
2018-Feb-09 22:00N 37°48' W 122°19'0 0.0
2018-Feb-09 20:30N 37°48' W 122°19'0 0.0
2018-Feb-09 19:30N 37°48' W 122°19'0 0.0
2018-Feb-09 19:00N 37°48' W 122°19'0 0.0
2018-Feb-09 17:01N 37°48' W 122°19'0 0.0
2018-Feb-09 16:00N 37°48' W 122°19'0 0.0
2018-Feb-09 15:30N 37°48' W 122°19'0 0.0
2018-Feb-09 15:00N 37°48' W 122°19'0 0.0
2018-Feb-09 13:30N 37°48' W 122°19'0 0.0
2018-Feb-09 13:01N 37°48' W 122°19'1 1.2
2018-Feb-09 12:30N 37°48' W 122°19'1 1.8
2018-Feb-09 12:00N 37°48' W 122°18'3 5.7
2018-Feb-09 11:30N 37°48' W 122°21'4 8.6
2018-Feb-09 11:00N 37°49' W 122°26'510.3
2018-Feb-09 10:30N 37°47' W 122°33'713.3
2018-Feb-09 10:00N 37°46' W 122°41'4 7.1
2018-Feb-09 09:30N 37°47' W 122°45'4 7.1
2018-Feb-09 09:00N 37°48' W 122°49'8 8.4
2018-Feb-09 08:00N 37°52' W 122°59'7 7.3
2018-Feb-09 07:00N 37°55' W 123°07'2 5.0
2018-Feb-09 06:30N 37°57' W 123°09'4 8.2
2018-Feb-09 06:00N 37°60' W 123°13'4 8.6
2018-Feb-09 05:30N 38°03' W 123°17'4 9.0
2018-Feb-09 05:00N 38°06' W 123°20'4 8.8
2018-Feb-09 04:30N 38°10' W 123°24'510.4
2018-Feb-09 04:00N 38°14' W 123°28'5 9.9
2018-Feb-09 03:30N 38°18' W 123°31'5 9.4
2018-Feb-09 03:00N 38°22' W 123°34'5 9.1
2018-Feb-09 02:30N 38°26' W 123°38'5 9.1
2018-Feb-09 02:00N 38°30' W 123°41'  
Track history (hours):
 
Tides and Currents Weather Stations Pressure Air Temp Water Temp Dewpoint Dewpoint Depression Visibility Wind Speed Wind Dir Waves Ship Positions

Nyk Meteor

Last reported at 2018-Feb-19 00:22 UTC. Time now 2018-Feb-22 05:29 UTC.
Position N 09°55' W 078°37'.

Length 294 m; draft 9.7 m.

Type: Cargo ship. MMSI: 354212000.

Date/timePositionNaut miles runAvg speedWind from/ knotsBaromVisibWave heightAir tempDewpointWater temp
2018-Feb-19 00:22N 09°55' W 078°37'7315.9
2018-Feb-18 19:48N 09°33' W 079°48'516.5
2018-Feb-18 19:30N 09°29' W 079°51'612.9
2018-Feb-18 19:00N 09°24' W 079°55'510.5
2018-Feb-18 18:30N 09°19' W 079°55'2 5.0
2018-Feb-18 18:00N 09°17' W 079°55'0 0.4
2018-Feb-18 17:30N 09°16' W 079°55'0 0.4
2018-Feb-18 17:00N 09°16' W 079°55'1 1.1
2018-Feb-18 16:30N 09°16' W 079°55'1 1.7
2018-Feb-18 16:00N 09°15' W 079°55'3 5.4
2018-Feb-18 15:29N 09°12' W 079°55'  
2018-Feb-11 01:07N 31°57' W 119°03'420.9
2018-Feb-11 00:54N 32°01' W 119°06'920.9
2018-Feb-11 00:29N 32°08' W 119°12'1020.5
2018-Feb-11 00:00N 32°16' W 119°19'1020.2
2018-Feb-10 23:30N 32°24' W 119°26'2820.5
2018-Feb-10 22:10N 32°47' W 119°45'820.6
2018-Feb-10 21:47N 32°53' W 119°50'620.6
2018-Feb-10 21:29N 32°58' W 119°54'1020.4
2018-Feb-10 21:00N 33°06' W 120°01'1420.4
2018-Feb-10 20:20N 33°17' W 120°10'720.7
2018-Feb-10 20:00N 33°23' W 120°15'1020.4
2018-Feb-10 19:30N 33°31' W 120°22'1020.3
2018-Feb-10 19:01N 33°40' W 120°29'1120.5
2018-Feb-10 18:28N 33°49' W 120°37'1020.8
2018-Feb-10 18:00N 33°57' W 120°44'1020.5
2018-Feb-10 17:31N 34°05' W 120°51'1120.6
2018-Feb-10 17:00N 34°13' W 120°58'1120.7
2018-Feb-10 16:28N 34°22' W 121°05'1020.5
2018-Feb-10 16:00N 34°30' W 121°12'1020.4
2018-Feb-10 15:30N 34°38' W 121°20'1020.1
2018-Feb-10 15:01N 34°47' W 121°26'1020.5
2018-Feb-10 14:31N 34°56' W 121°31'1020.7
2018-Feb-10 14:00N 35°06' W 121°36'1020.6
2018-Feb-10 13:31N 35°15' W 121°41'1020.6
2018-Feb-10 13:00N 35°25' W 121°46'1020.4
2018-Feb-10 12:31N 35°34' W 121°51'1020.5
2018-Feb-10 12:00N 35°43' W 121°57'2520.6
2018-Feb-10 10:48N 36°05' W 122°10'720.9
2018-Feb-10 10:28N 36°12' W 122°14'1020.9
2018-Feb-10 10:00N 36°20' W 122°20'1020.6
2018-Feb-10 09:30N 36°30' W 122°24'1020.6
2018-Feb-10 09:00N 36°40' W 122°29'1020.4
2018-Feb-10 08:31N 36°49' W 122°33'1020.6
2018-Feb-10 08:01N 36°59' W 122°38'1020.4
2018-Feb-10 07:31N 37°08' W 122°43'1019.9
2018-Feb-10 07:01N 37°18' W 122°44'1020.7
2018-Feb-10 06:31N 37°28' W 122°43'917.0
2018-Feb-10 06:00N 37°37' W 122°44'510.1
2018-Feb-10 05:30N 37°42' W 122°42'4 9.1
2018-Feb-10 05:01N 37°46' W 122°40'612.3
2018-Feb-10 04:30N 37°48' W 122°33'612.3
2018-Feb-10 04:00N 37°51' W 122°26'510.3
2018-Feb-10 03:30N 37°48' W 122°20'1 1.2
2018-Feb-10 03:00N 37°48' W 122°19'0 0.1
2018-Feb-10 02:29N 37°48' W 122°19'0 0.0
2018-Feb-10 02:00N 37°48' W 122°19'0 0.0
2018-Feb-10 01:30N 37°48' W 122°19'0 0.0
2018-Feb-10 01:00N 37°48' W 122°19'0 0.0
2018-Feb-10 00:30N 37°48' W 122°19'0 0.0
2018-Feb-10 00:00N 37°48' W 122°19'0 0.0
2018-Feb-09 23:30N 37°48' W 122°19'0 0.0
2018-Feb-09 23:00N 37°48' W 122°19'0 0.0
2018-Feb-09 22:46N 37°48' W 122°19'0 0.0
2018-Feb-09 22:30N 37°48' W 122°19'0 0.0
2018-Feb-09 22:00N 37°48' W 122°19'0 0.0
2018-Feb-09 20:30N 37°48' W 122°19'0 0.0
2018-Feb-09 19:30N 37°48' W 122°19'0 0.0
2018-Feb-09 19:00N 37°48' W 122°19'0 0.0
2018-Feb-09 17:01N 37°48' W 122°19'0 0.0
2018-Feb-09 16:00N 37°48' W 122°19'0 0.0
2018-Feb-09 15:30N 37°48' W 122°19'0 0.0
2018-Feb-09 15:00N 37°48' W 122°19'0 0.0
2018-Feb-09 13:30N 37°48' W 122°19'0 0.0
2018-Feb-09 13:01N 37°48' W 122°19'1 1.2
2018-Feb-09 12:30N 37°48' W 122°19'1 1.8
2018-Feb-09 12:00N 37°48' W 122°18'3 5.7
2018-Feb-09 11:30N 37°48' W 122°21'4 8.6
2018-Feb-09 11:00N 37°49' W 122°26'510.3
2018-Feb-09 10:30N 37°47' W 122°33'713.3
2018-Feb-09 10:00N 37°46' W 122°41'4 7.1
2018-Feb-09 09:30N 37°47' W 122°45'4 7.1
2018-Feb-09 09:00N 37°48' W 122°49'8 8.4
2018-Feb-09 08:00N 37°52' W 122°59'7 7.3
2018-Feb-09 07:00N 37°55' W 123°07'2 5.0
2018-Feb-09 06:30N 37°57' W 123°09'4 8.2
2018-Feb-09 06:00N 37°60' W 123°13'4 8.6
2018-Feb-09 05:30N 38°03' W 123°17'4 9.0
2018-Feb-09 05:00N 38°06' W 123°20'4 8.8
2018-Feb-09 04:30N 38°10' W 123°24'510.4
2018-Feb-09 04:00N 38°14' W 123°28'5 9.9
2018-Feb-09 03:30N 38°18' W 123°31'5 9.4
2018-Feb-09 03:00N 38°22' W 123°34'5 9.1
2018-Feb-09 02:30N 38°26' W 123°38'5 9.1
2018-Feb-09 02:00N 38°30' W 123°41'  

Dump ship's entire track history